sensor_id;sensor_type;location;lat;lon;timestamp;temperature;humidity
32640;DHT22;19049;52.524;11.468;2023-08-01T00:05:08;18.60;99.90
32640;DHT22;19049;52.524;11.468;2023-08-01T00:10:00;19.30;99.90
32640;DHT22;19049;52.524;11.468;2023-08-01T00:12:27;18.50;99.90
32640;DHT22;19049;52.524;11.468;2023-08-01T00:14:53;18.40;99.90
32640;DHT22;19049;52.524;11.468;2023-08-01T00:17:18;17.90;99.90
32640;DHT22;19049;52.524;11.468;2023-08-01T00:19:44;18.40;99.90
32640;DHT22;19049;52.524;11.468;2023-08-01T00:22:10;19.10;99.90
32640;DHT22;19049;52.524;11.468;2023-08-01T00:24:36;18.40;99.90
32640;DHT22;19049;52.524;11.468;2023-08-01T00:27:02;17.40;99.90
32640;DHT22;19049;52.524;11.468;2023-08-01T00:36:46;18.00;99.90
32640;DHT22;19049;52.524;11.468;2023-08-01T00:41:38;18.40;99.90
32640;DHT22;19049;52.524;11.468;2023-08-01T00:46:29;19.10;99.90
32640;DHT22;19049;52.524;11.468;2023-08-01T00:48:55;19.10;99.90
32640;DHT22;19049;52.524;11.468;2023-08-01T00:51:26;17.80;99.90
32640;DHT22;19049;52.524;11.468;2023-08-01T00:53:52;17.80;99.90
32640;DHT22;19049;52.524;11.468;2023-08-01T00:56:18;18.40;99.90
32640;DHT22;19049;52.524;11.468;2023-08-01T01:03:36;18.00;99.90
32640;DHT22;19049;52.524;11.468;2023-08-01T01:06:15;18.00;99.90
32640;DHT22;19049;52.524;11.468;2023-08-01T01:11:09;18.30;99.90
32640;DHT22;19049;52.524;11.468;2023-08-01T01:16:01;18.20;99.90
32640;DHT22;19049;52.524;11.468;2023-08-01T01:18:26;17.70;99.90
32640;DHT22;19049;52.524;11.468;2023-08-01T01:23:19;19.10;99.90
32640;DHT22;19049;52.524;11.468;2023-08-01T01:25:46;18.20;99.90
32640;DHT22;19049;52.524;11.468;2023-08-01T01:28:13;17.90;99.90
32640;DHT22;19049;52.524;11.468;2023-08-01T01:30:41;18.20;99.90
32640;DHT22;19049;52.524;11.468;2023-08-01T01:33:07;18.90;99.90
32640;DHT22;19049;52.524;11.468;2023-08-01T01:38:00;18.20;99.90
32640;DHT22;19049;52.524;11.468;2023-08-01T01:40:30;17.70;99.90
32640;DHT22;19049;52.524;11.468;2023-08-01T01:42:56;18.00;99.90
32640;DHT22;19049;52.524;11.468;2023-08-01T01:45:22;18.80;99.90
32640;DHT22;19049;52.524;11.468;2023-08-01T01:47:47;18.20;99.90
32640;DHT22;19049;52.524;11.468;2023-08-01T01:50:13;18.90;99.90
32640;DHT22;19049;52.524;11.468;2023-08-01T01:52:38;18.20;99.90
32640;DHT22;19049;52.524;11.468;2023-08-01T01:55:04;17.80;99.90
32640;DHT22;19049;52.524;11.468;2023-08-01T01:57:30;18.20;99.90
32640;DHT22;19049;52.524;11.468;2023-08-01T02:02:22;18.70;99.90
32640;DHT22;19049;52.524;11.468;2023-08-01T02:04:49;17.80;99.90
32640;DHT22;19049;52.524;11.468;2023-08-01T02:07:15;18.00;99.90
32640;DHT22;19049;52.524;11.468;2023-08-01T02:09:41;18.90;99.90
32640;DHT22;19049;52.524;11.468;2023-08-01T02:12:07;18.10;99.90
32640;DHT22;19049;52.524;11.468;2023-08-01T02:17:01;18.50;99.90
32640;DHT22;19049;52.524;11.468;2023-08-01T02:19:27;18.10;99.90
32640;DHT22;19049;52.524;11.468;2023-08-01T02:21:53;18.80;99.90
32640;DHT22;19049;52.524;11.468;2023-08-01T02:26:45;18.80;99.90
32640;DHT22;19049;52.524;11.468;2023-08-01T02:31:37;18.10;99.90
32640;DHT22;19049;52.524;11.468;2023-08-01T02:34:02;18.80;99.90
32640;DHT22;19049;52.524;11.468;2023-08-01T02:41:20;19.00;99.90
32640;DHT22;19049;52.524;11.468;2023-08-01T02:46:11;17.70;99.90
32640;DHT22;19049;52.524;11.468;2023-08-01T02:51:03;17.70;99.90
32640;DHT22;19049;52.524;11.468;2023-08-01T02:53:29;17.60;99.90
32640;DHT22;19049;52.524;11.468;2023-08-01T02:55:54;18.60;99.90
32640;DHT22;19049;52.524;11.468;2023-08-01T02:58:20;18.50;99.90
32640;DHT22;19049;52.524;11.468;2023-08-01T03:03:13;18.10;99.90
32640;DHT22;19049;52.524;11.468;2023-08-01T03:10:30;18.60;99.90
32640;DHT22;19049;52.524;11.468;2023-08-01T03:12:56;18.50;99.90
32640;DHT22;19049;52.524;11.468;2023-08-01T03:17:48;18.60;99.90
32640;DHT22;19049;52.524;11.468;2023-08-01T03:22:40;17.90;99.90
32640;DHT22;19049;52.524;11.468;2023-08-01T03:25:07;18.00;99.90
32640;DHT22;19049;52.524;11.468;2023-08-01T03:27:34;17.70;99.90
32640;DHT22;19049;52.524;11.468;2023-08-01T03:29:59;18.70;99.90
32640;DHT22;19049;52.524;11.468;2023-08-01T03:32:25;18.50;99.90
32640;DHT22;19049;52.524;11.468;2023-08-01T03:34:51;17.90;99.90
32640;DHT22;19049;52.524;11.468;2023-08-01T03:44:35;18.10;99.90
32640;DHT22;19049;52.524;11.468;2023-08-01T03:47:01;18.30;99.90
32640;DHT22;19049;52.524;11.468;2023-08-01T03:54:19;17.80;99.90
32640;DHT22;19049;52.524;11.468;2023-08-01T03:59:13;17.70;99.90
32640;DHT22;19049;52.524;11.468;2023-08-01T04:21:09;17.60;99.90
32640;DHT22;19049;52.524;11.468;2023-08-01T04:23:35;17.30;99.90
32640;DHT22;19049;52.524;11.468;2023-08-01T04:26:01;18.50;99.90
32640;DHT22;19049;52.524;11.468;2023-08-01T04:28:26;18.10;99.90
32640;DHT22;19049;52.524;11.468;2023-08-01T04:30:52;18.20;99.90
32640;DHT22;19049;52.524;11.468;2023-08-01T04:33:18;18.30;99.90
32640;DHT22;19049;52.524;11.468;2023-08-01T04:35:44;17.50;99.90
32640;DHT22;19049;52.524;11.468;2023-08-01T04:55:14;18.60;99.90
32640;DHT22;19049;52.524;11.468;2023-08-01T05:22:01;17.80;99.90
32640;DHT22;19049;52.524;11.468;2023-08-01T05:24:26;17.70;99.90
32640;DHT22;19049;52.524;11.468;2023-08-01T05:31:44;17.90;99.90
32640;DHT22;19049;52.524;11.468;2023-08-01T05:34:10;18.30;99.90
32640;DHT22;19049;52.524;11.468;2023-08-01T05:53:39;19.10;99.90
32640;DHT22;19049;52.524;11.468;2023-08-01T06:00:58;18.30;99.90
32640;DHT22;19049;52.524;11.468;2023-08-01T06:20:28;19.00;99.90
32640;DHT22;19049;52.524;11.468;2023-08-01T06:25:20;18.50;99.90
32640;DHT22;19049;52.524;11.468;2023-08-01T06:27:45;19.60;99.90
32640;DHT22;19049;52.524;11.468;2023-08-01T06:32:37;18.70;99.90
32640;DHT22;19049;52.524;11.468;2023-08-01T06:35:03;19.00;99.90
32640;DHT22;19049;52.524;11.468;2023-08-01T07:16:27;18.70;99.90
32640;DHT22;19049;52.524;11.468;2023-08-01T07:31:06;19.00;99.90
32640;DHT22;19049;52.524;11.468;2023-08-01T07:33:33;19.00;99.90
32640;DHT22;19049;52.524;11.468;2023-08-01T08:05:13;18.40;99.90
32640;DHT22;19049;52.524;11.468;2023-08-01T08:10:06;18.70;99.90
32640;DHT22;19049;52.524;11.468;2023-08-01T08:19:49;18.70;99.90
32640;DHT22;19049;52.524;11.468;2023-08-01T08:36:52;19.00;99.90
32640;DHT22;19049;52.524;11.468;2023-08-01T08:41:48;19.00;99.90
32640;DHT22;19049;52.524;11.468;2023-08-01T08:44:16;19.50;99.90
32640;DHT22;19049;52.524;11.468;2023-08-01T08:46:52;19.00;99.90
32640;DHT22;19049;52.524;11.468;2023-08-01T08:49:21;19.00;99.90
32640;DHT22;19049;52.524;11.468;2023-08-01T08:54:14;19.20;99.90
32640;DHT22;19049;52.524;11.468;2023-08-01T08:56:41;19.20;99.90
32640;DHT22;19049;52.524;11.468;2023-08-01T08:59:08;19.30;99.90
32640;DHT22;19049;52.524;11.468;2023-08-01T09:06:30;19.50;99.90
32640;DHT22;19049;52.524;11.468;2023-08-01T09:09:05;19.50;99.90
32640;DHT22;19049;52.524;11.468;2023-08-01T09:11:51;19.70;99.90
32640;DHT22;19049;52.524;11.468;2023-08-01T09:14:17;19.90;99.90
32640;DHT22;19049;52.524;11.468;2023-08-01T09:19:10;20.30;99.90
32640;DHT22;19049;52.524;11.468;2023-08-01T09:21:39;20.10;99.90
32640;DHT22;19049;52.524;11.468;2023-08-01T09:24:12;20.20;99.90
32640;DHT22;19049;52.524;11.468;2023-08-01T09:26:38;20.60;99.90
32640;DHT22;19049;52.524;11.468;2023-08-01T09:29:04;20.50;99.90
32640;DHT22;19049;52.524;11.468;2023-08-01T09:31:34;20.60;99.90
32640;DHT22;19049;52.524;11.468;2023-08-01T09:34:02;20.80;99.90
32640;DHT22;19049;52.524;11.468;2023-08-01T09:39:01;20.50;99.90
32640;DHT22;19049;52.524;11.468;2023-08-01T09:41:29;20.80;99.90
32640;DHT22;19049;52.524;11.468;2023-08-01T09:43:55;20.10;99.90
32640;DHT22;19049;52.524;11.468;2023-08-01T09:51:17;20.50;99.90
32640;DHT22;19049;52.524;11.468;2023-08-01T09:53:51;20.80;99.90
32640;DHT22;19049;52.524;11.468;2023-08-01T09:56:27;20.80;99.90
32640;DHT22;19049;52.524;11.468;2023-08-01T09:58:55;20.90;99.90
32640;DHT22;19049;52.524;11.468;2023-08-01T10:01:23;20.90;99.90
32640;DHT22;19049;52.524;11.468;2023-08-01T10:03:51;20.90;99.90
32640;DHT22;19049;52.524;11.468;2023-08-01T10:06:22;20.90;99.90
32640;DHT22;19049;52.524;11.468;2023-08-01T10:08:49;21.20;99.90
32640;DHT22;19049;52.524;11.468;2023-08-01T10:11:18;20.80;99.90
32640;DHT22;19049;52.524;11.468;2023-08-01T10:16:11;21.10;99.90
32640;DHT22;19049;52.524;11.468;2023-08-01T10:18:38;21.20;99.90
32640;DHT22;19049;52.524;11.468;2023-08-01T10:21:06;21.70;99.90
32640;DHT22;19049;52.524;11.468;2023-08-01T10:23:35;21.80;99.90
32640;DHT22;19049;52.524;11.468;2023-08-01T10:26:05;22.10;99.90
32640;DHT22;19049;52.524;11.468;2023-08-01T10:28:38;22.20;99.90
32640;DHT22;19049;52.524;11.468;2023-08-01T10:31:11;22.20;99.90
32640;DHT22;19049;52.524;11.468;2023-08-01T10:33:38;22.50;99.90
32640;DHT22;19049;52.524;11.468;2023-08-01T10:36:24;22.60;99.90
32640;DHT22;19049;52.524;11.468;2023-08-01T10:38:54;22.80;99.90
32640;DHT22;19049;52.524;11.468;2023-08-01T10:41:31;22.90;99.90
32640;DHT22;19049;52.524;11.468;2023-08-01T10:44:14;22.90;99.90
32640;DHT22;19049;52.524;11.468;2023-08-01T10:47:00;23.80;99.90
32640;DHT22;19049;52.524;11.468;2023-08-01T10:49:37;23.50;99.90
32640;DHT22;19049;52.524;11.468;2023-08-01T10:52:21;23.50;99.90
32640;DHT22;19049;52.524;11.468;2023-08-01T10:54:56;23.40;99.90
32640;DHT22;19049;52.524;11.468;2023-08-01T10:57:23;23.30;99.90
32640;DHT22;19049;52.524;11.468;2023-08-01T10:59:49;23.30;99.90
32640;DHT22;19049;52.524;11.468;2023-08-01T11:02:20;23.40;99.90
32640;DHT22;19049;52.524;11.468;2023-08-01T11:07:34;23.30;99.90
32640;DHT22;19049;52.524;11.468;2023-08-01T11:10:04;23.50;99.90
32640;DHT22;19049;52.524;11.468;2023-08-01T11:12:34;23.40;99.90
32640;DHT22;19049;52.524;11.468;2023-08-01T11:15:00;23.30;99.90
32640;DHT22;19049;52.524;11.468;2023-08-01T11:17:26;23.30;99.90
32640;DHT22;19049;52.524;11.468;2023-08-01T11:20:00;23.40;99.90
32640;DHT22;19049;52.524;11.468;2023-08-01T11:22:28;23.20;99.90
32640;DHT22;19049;52.524;11.468;2023-08-01T11:24:54;23.00;99.90
32640;DHT22;19049;52.524;11.468;2023-08-01T11:27:19;23.70;99.90
32640;DHT22;19049;52.524;11.468;2023-08-01T11:32:11;24.50;99.90
32640;DHT22;19049;52.524;11.468;2023-08-01T11:34:43;23.60;99.90
32640;DHT22;19049;52.524;11.468;2023-08-01T11:37:18;25.10;99.90
32640;DHT22;19049;52.524;11.468;2023-08-01T11:39:45;24.40;99.90
32640;DHT22;19049;52.524;11.468;2023-08-01T11:42:17;24.50;99.90
32640;DHT22;19049;52.524;11.468;2023-08-01T11:44:43;24.60;97.50
32640;DHT22;19049;52.524;11.468;2023-08-01T11:47:17;24.60;99.80
32640;DHT22;19049;52.524;11.468;2023-08-01T11:49:49;24.70;99.40
32640;DHT22;19049;52.524;11.468;2023-08-01T11:52:25;24.60;99.90
32640;DHT22;19049;52.524;11.468;2023-08-01T11:54:51;24.30;99.90
32640;DHT22;19049;52.524;11.468;2023-08-01T11:59:48;25.70;99.90
32640;DHT22;19049;52.524;11.468;2023-08-01T12:02:24;25.20;99.90
32640;DHT22;19049;52.524;11.468;2023-08-01T12:04:51;25.20;98.40
32640;DHT22;19049;52.524;11.468;2023-08-01T12:07:17;25.60;98.50
32640;DHT22;19049;52.524;11.468;2023-08-01T12:09:44;24.70;99.40
32640;DHT22;19049;52.524;11.468;2023-08-01T12:12:11;25.00;99.90
32640;DHT22;19049;52.524;11.468;2023-08-01T12:14:42;24.70;99.90
32640;DHT22;19049;52.524;11.468;2023-08-01T12:17:08;25.00;99.90
32640;DHT22;19049;52.524;11.468;2023-08-01T12:22:00;26.10;99.90
32640;DHT22;19049;52.524;11.468;2023-08-01T12:24:25;25.30;99.90
32640;DHT22;19049;52.524;11.468;2023-08-01T12:34:11;26.10;97.30
32640;DHT22;19049;52.524;11.468;2023-08-01T12:36:37;26.20;98.20
32640;DHT22;19049;52.524;11.468;2023-08-01T12:39:02;26.30;98.00
32640;DHT22;19049;52.524;11.468;2023-08-01T12:41:28;26.30;96.00
32640;DHT22;19049;52.524;11.468;2023-08-01T12:43:54;26.30;96.60
32640;DHT22;19049;52.524;11.468;2023-08-01T12:46:20;26.30;96.90
32640;DHT22;19049;52.524;11.468;2023-08-01T12:48:45;26.30;99.90
32640;DHT22;19049;52.524;11.468;2023-08-01T12:51:11;25.10;97.30
32640;DHT22;19049;52.524;11.468;2023-08-01T12:53:37;25.80;98.20
32640;DHT22;19049;52.524;11.468;2023-08-01T12:58:30;25.00;96.10
32640;DHT22;19049;52.524;11.468;2023-08-01T13:00:56;23.90;99.90
32640;DHT22;19049;52.524;11.468;2023-08-01T13:03:22;24.50;96.40
32640;DHT22;19049;52.524;11.468;2023-08-01T13:05:47;24.30;96.30
32640;DHT22;19049;52.524;11.468;2023-08-01T13:08:13;23.00;99.90
32640;DHT22;19049;52.524;11.468;2023-08-01T13:10:38;23.50;99.90
32640;DHT22;19049;52.524;11.468;2023-08-01T13:13:05;23.70;97.40
32640;DHT22;19049;52.524;11.468;2023-08-01T13:15:31;23.10;99.90
32640;DHT22;19049;52.524;11.468;2023-08-01T13:17:57;23.20;99.90
32640;DHT22;19049;52.524;11.468;2023-08-01T13:20:22;22.70;99.90
32640;DHT22;19049;52.524;11.468;2023-08-01T13:22:51;23.30;99.90
32640;DHT22;19049;52.524;11.468;2023-08-01T13:25:18;24.40;99.90
32640;DHT22;19049;52.524;11.468;2023-08-01T13:27:44;24.00;99.90
32640;DHT22;19049;52.524;11.468;2023-08-01T13:30:10;24.00;97.50
32640;DHT22;19049;52.524;11.468;2023-08-01T13:32:36;24.00;99.00
32640;DHT22;19049;52.524;11.468;2023-08-01T13:35:02;24.00;94.90
32640;DHT22;19049;52.524;11.468;2023-08-01T13:37:28;23.90;94.60
32640;DHT22;19049;52.524;11.468;2023-08-01T13:39:56;23.70;93.70
32640;DHT22;19049;52.524;11.468;2023-08-01T13:42:22;23.50;94.80
32640;DHT22;19049;52.524;11.468;2023-08-01T13:44:47;23.20;94.20
32640;DHT22;19049;52.524;11.468;2023-08-01T13:47:13;21.60;99.90
32640;DHT22;19049;52.524;11.468;2023-08-01T13:49:38;22.50;96.20
32640;DHT22;19049;52.524;11.468;2023-08-01T13:52:04;22.10;96.70
32640;DHT22;19049;52.524;11.468;2023-08-01T13:54:30;21.80;99.90
32640;DHT22;19049;52.524;11.468;2023-08-01T13:56:56;21.30;98.60
32640;DHT22;19049;52.524;11.468;2023-08-01T13:59:22;21.10;99.90
32640;DHT22;19049;52.524;11.468;2023-08-01T14:01:48;20.90;99.90
32640;DHT22;19049;52.524;11.468;2023-08-01T14:04:14;20.80;99.90
32640;DHT22;19049;52.524;11.468;2023-08-01T14:06:40;21.10;99.90
32640;DHT22;19049;52.524;11.468;2023-08-01T14:09:09;22.10;99.90
32640;DHT22;19049;52.524;11.468;2023-08-01T14:11:36;22.00;99.90
32640;DHT22;19049;52.524;11.468;2023-08-01T14:14:02;22.40;99.90
32640;DHT22;19049;52.524;11.468;2023-08-01T14:16:28;22.90;99.90
32640;DHT22;19049;52.524;11.468;2023-08-01T14:18:54;23.30;99.90
32640;DHT22;19049;52.524;11.468;2023-08-01T14:21:20;24.90;99.90
32640;DHT22;19049;52.524;11.468;2023-08-01T14:23:46;24.30;99.90
32640;DHT22;19049;52.524;11.468;2023-08-01T14:26:11;24.70;99.90
32640;DHT22;19049;52.524;11.468;2023-08-01T14:28:37;24.70;99.90
32640;DHT22;19049;52.524;11.468;2023-08-01T14:31:03;24.60;98.70
32640;DHT22;19049;52.524;11.468;2023-08-01T14:33:29;24.70;99.90
32640;DHT22;19049;52.524;11.468;2023-08-01T14:35:55;24.10;96.20
32640;DHT22;19049;52.524;11.468;2023-08-01T14:38:21;23.90;98.20
32640;DHT22;19049;52.524;11.468;2023-08-01T14:40:47;23.70;98.20
32640;DHT22;19049;52.524;11.468;2023-08-01T14:45:42;23.40;99.90
32640;DHT22;19049;52.524;11.468;2023-08-01T14:48:08;22.30;99.90
32640;DHT22;19049;52.524;11.468;2023-08-01T14:50:34;23.10;99.90
32640;DHT22;19049;52.524;11.468;2023-08-01T14:53:01;22.60;97.20
32640;DHT22;19049;52.524;11.468;2023-08-01T14:57:54;22.00;99.90
32640;DHT22;19049;52.524;11.468;2023-08-01T15:00:20;23.10;99.90
32640;DHT22;19049;52.524;11.468;2023-08-01T15:17:24;23.30;96.50
32640;DHT22;19049;52.524;11.468;2023-08-01T15:19:50;23.30;95.80
32640;DHT22;19049;52.524;11.468;2023-08-01T15:22:17;23.30;95.00
32640;DHT22;19049;52.524;11.468;2023-08-01T15:24:44;23.30;95.60
32640;DHT22;19049;52.524;11.468;2023-08-01T15:34:29;22.60;99.90
32640;DHT22;19049;52.524;11.468;2023-08-01T15:36:54;22.80;99.90
32640;DHT22;19049;52.524;11.468;2023-08-01T15:41:47;22.50;96.20
32640;DHT22;19049;52.524;11.468;2023-08-01T15:51:32;23.80;99.90
32640;DHT22;19049;52.524;11.468;2023-08-01T15:56:24;23.70;99.90
32640;DHT22;19049;52.524;11.468;2023-08-01T15:58:50;23.70;96.90
32640;DHT22;19049;52.524;11.468;2023-08-01T16:01:15;24.00;96.90
32640;DHT22;19049;52.524;11.468;2023-08-01T16:03:42;24.40;93.90
32640;DHT22;19049;52.524;11.468;2023-08-01T16:06:09;24.70;99.90
32640;DHT22;19049;52.524;11.468;2023-08-01T16:18:20;24.10;94.60
32640;DHT22;19049;52.524;11.468;2023-08-01T16:20:46;24.10;96.30
32640;DHT22;19049;52.524;11.468;2023-08-01T16:23:12;23.90;97.10
32640;DHT22;19049;52.524;11.468;2023-08-01T16:25:38;23.90;96.30
32640;DHT22;19049;52.524;11.468;2023-08-01T16:28:04;23.90;96.90
32640;DHT22;19049;52.524;11.468;2023-08-01T16:30:30;23.80;96.20
32640;DHT22;19049;52.524;11.468;2023-08-01T16:32:56;23.80;96.10
32640;DHT22;19049;52.524;11.468;2023-08-01T16:35:22;23.80;95.90
32640;DHT22;19049;52.524;11.468;2023-08-01T16:37:48;23.70;95.50
32640;DHT22;19049;52.524;11.468;2023-08-01T16:40:14;23.70;96.00
32640;DHT22;19049;52.524;11.468;2023-08-01T16:42:40;23.80;95.10
32640;DHT22;19049;52.524;11.468;2023-08-01T16:45:07;23.90;94.60
32640;DHT22;19049;52.524;11.468;2023-08-01T16:47:34;23.80;93.60
32640;DHT22;19049;52.524;11.468;2023-08-01T17:02:11;23.90;95.10
32640;DHT22;19049;52.524;11.468;2023-08-01T17:04:39;22.70;99.90
32640;DHT22;19049;52.524;11.468;2023-08-01T17:09:32;23.80;95.40
32640;DHT22;19049;52.524;11.468;2023-08-01T17:11:58;23.60;99.90
32640;DHT22;19049;52.524;11.468;2023-08-01T17:14:24;23.60;98.10
32640;DHT22;19049;52.524;11.468;2023-08-01T17:21:43;23.30;99.90
32640;DHT22;19049;52.524;11.468;2023-08-01T17:29:01;23.30;95.60
32640;DHT22;19049;52.524;11.468;2023-08-01T17:38:50;23.30;99.90
32640;DHT22;19049;52.524;11.468;2023-08-01T17:41:21;23.40;96.00
32640;DHT22;19049;52.524;11.468;2023-08-01T17:46:13;22.50;95.70
32640;DHT22;19049;52.524;11.468;2023-08-01T17:48:40;23.60;99.90
32640;DHT22;19049;52.524;11.468;2023-08-01T17:51:06;22.70;99.90
32640;DHT22;19049;52.524;11.468;2023-08-01T17:58:25;22.70;99.90
32640;DHT22;19049;52.524;11.468;2023-08-01T18:00:50;22.90;99.90
32640;DHT22;19049;52.524;11.468;2023-08-01T18:05:42;22.90;99.90
32640;DHT22;19049;52.524;11.468;2023-08-01T18:10:37;22.90;96.70
32640;DHT22;19049;52.524;11.468;2023-08-01T18:13:03;22.90;99.90
32640;DHT22;19049;52.524;11.468;2023-08-01T18:15:36;22.20;96.90
32640;DHT22;19049;52.524;11.468;2023-08-01T18:18:03;22.30;99.90
32640;DHT22;19049;52.524;11.468;2023-08-01T18:22:56;22.00;99.90
32640;DHT22;19049;52.524;11.468;2023-08-01T18:25:22;21.90;98.70
32640;DHT22;19049;52.524;11.468;2023-08-01T18:27:47;21.70;99.00
32640;DHT22;19049;52.524;11.468;2023-08-01T18:30:13;21.90;99.90
32640;DHT22;19049;52.524;11.468;2023-08-01T18:32:38;21.70;99.90
32640;DHT22;19049;52.524;11.468;2023-08-01T18:35:04;21.50;99.90
32640;DHT22;19049;52.524;11.468;2023-08-01T18:37:31;21.20;99.90
32640;DHT22;19049;52.524;11.468;2023-08-01T18:42:24;20.80;99.90
32640;DHT22;19049;52.524;11.468;2023-08-01T18:44:51;20.60;99.90
32640;DHT22;19049;52.524;11.468;2023-08-01T18:47:17;20.60;99.90
32640;DHT22;19049;52.524;11.468;2023-08-01T18:49:42;20.60;99.90
32640;DHT22;19049;52.524;11.468;2023-08-01T18:52:08;19.70;99.90
32640;DHT22;19049;52.524;11.468;2023-08-01T18:54:34;20.00;99.90
32640;DHT22;19049;52.524;11.468;2023-08-01T18:57:00;20.00;99.90
32640;DHT22;19049;52.524;11.468;2023-08-01T18:59:25;19.90;99.90
32640;DHT22;19049;52.524;11.468;2023-08-01T19:01:51;19.50;99.90
32640;DHT22;19049;52.524;11.468;2023-08-01T19:04:17;19.70;99.90
32640;DHT22;19049;52.524;11.468;2023-08-01T19:06:44;19.70;99.90
32640;DHT22;19049;52.524;11.468;2023-08-01T19:09:10;19.60;99.90
32640;DHT22;19049;52.524;11.468;2023-08-01T19:11:36;19.50;99.90
32640;DHT22;19049;52.524;11.468;2023-08-01T19:14:01;19.40;99.90
32640;DHT22;19049;52.524;11.468;2023-08-01T19:16:29;20.00;99.90
32640;DHT22;19049;52.524;11.468;2023-08-01T19:21:21;18.90;99.90
32640;DHT22;19049;52.524;11.468;2023-08-01T19:23:47;19.00;99.90
32640;DHT22;19049;52.524;11.468;2023-08-01T19:26:13;18.90;99.90
32640;DHT22;19049;52.524;11.468;2023-08-01T19:28:39;19.00;99.90
32640;DHT22;19049;52.524;11.468;2023-08-01T19:31:05;18.60;99.90
32640;DHT22;19049;52.524;11.468;2023-08-01T19:33:31;18.50;99.90
32640;DHT22;19049;52.524;11.468;2023-08-01T19:38:24;18.20;99.90
32640;DHT22;19049;52.524;11.468;2023-08-01T19:40:49;18.20;99.90
32640;DHT22;19049;52.524;11.468;2023-08-01T19:43:15;18.10;99.90
32640;DHT22;19049;52.524;11.468;2023-08-01T19:45:42;18.00;99.90
32640;DHT22;19049;52.524;11.468;2023-08-01T19:48:08;18.00;99.90
32640;DHT22;19049;52.524;11.468;2023-08-01T19:50:39;18.00;99.90
32640;DHT22;19049;52.524;11.468;2023-08-01T19:53:05;18.00;99.90
32640;DHT22;19049;52.524;11.468;2023-08-01T19:55:31;18.00;99.90
32640;DHT22;19049;52.524;11.468;2023-08-01T19:57:57;18.10;99.90
32640;DHT22;19049;52.524;11.468;2023-08-01T20:00:23;18.10;99.90
32640;DHT22;19049;52.524;11.468;2023-08-01T20:02:48;18.10;99.90
32640;DHT22;19049;52.524;11.468;2023-08-01T20:05:15;18.10;99.90
32640;DHT22;19049;52.524;11.468;2023-08-01T20:07:41;18.10;99.90
32640;DHT22;19049;52.524;11.468;2023-08-01T20:10:07;18.10;99.90
32640;DHT22;19049;52.524;11.468;2023-08-01T20:12:33;18.10;99.90
32640;DHT22;19049;52.524;11.468;2023-08-01T20:14:59;17.90;99.90
32640;DHT22;19049;52.524;11.468;2023-08-01T20:17:25;18.10;99.90
32640;DHT22;19049;52.524;11.468;2023-08-01T20:19:51;17.80;99.90
32640;DHT22;19049;52.524;11.468;2023-08-01T20:22:20;17.90;99.90
32640;DHT22;19049;52.524;11.468;2023-08-01T20:24:46;17.70;99.90
32640;DHT22;19049;52.524;11.468;2023-08-01T20:27:13;17.90;99.90
32640;DHT22;19049;52.524;11.468;2023-08-01T20:29:39;17.60;99.90
32640;DHT22;19049;52.524;11.468;2023-08-01T20:32:05;17.60;99.90
32640;DHT22;19049;52.524;11.468;2023-08-01T20:34:32;17.60;99.90
32640;DHT22;19049;52.524;11.468;2023-08-01T20:36:58;17.60;99.90
32640;DHT22;19049;52.524;11.468;2023-08-01T20:39:24;17.60;99.90
32640;DHT22;19049;52.524;11.468;2023-08-01T20:41:52;17.50;99.90
32640;DHT22;19049;52.524;11.468;2023-08-01T20:44:18;17.50;99.90
32640;DHT22;19049;52.524;11.468;2023-08-01T20:46:43;17.50;99.90
32640;DHT22;19049;52.524;11.468;2023-08-01T20:49:09;17.50;99.90
32640;DHT22;19049;52.524;11.468;2023-08-01T20:51:35;17.50;99.90
32640;DHT22;19049;52.524;11.468;2023-08-01T20:54:00;17.40;99.90
32640;DHT22;19049;52.524;11.468;2023-08-01T20:56:26;17.40;99.90
32640;DHT22;19049;52.524;11.468;2023-08-01T20:58:52;17.40;99.90
32640;DHT22;19049;52.524;11.468;2023-08-01T21:01:17;17.40;99.90
32640;DHT22;19049;52.524;11.468;2023-08-01T21:03:44;17.30;99.90
32640;DHT22;19049;52.524;11.468;2023-08-01T21:06:14;17.40;99.90
32640;DHT22;19049;52.524;11.468;2023-08-01T21:08:40;17.30;99.90
32640;DHT22;19049;52.524;11.468;2023-08-01T21:11:13;17.30;99.90
32640;DHT22;19049;52.524;11.468;2023-08-01T21:13:41;17.20;99.90
32640;DHT22;19049;52.524;11.468;2023-08-01T21:16:18;17.20;99.90
32640;DHT22;19049;52.524;11.468;2023-08-01T21:18:45;17.20;99.90
32640;DHT22;19049;52.524;11.468;2023-08-01T21:21:12;17.80;99.90
32640;DHT22;19049;52.524;11.468;2023-08-01T21:23:42;17.20;99.90
32640;DHT22;19049;52.524;11.468;2023-08-01T21:26:09;17.10;99.90
32640;DHT22;19049;52.524;11.468;2023-08-01T21:28:35;17.10;99.90
32640;DHT22;19049;52.524;11.468;2023-08-01T21:31:01;17.10;99.90
32640;DHT22;19049;52.524;11.468;2023-08-01T21:33:27;17.10;99.90
32640;DHT22;19049;52.524;11.468;2023-08-01T21:35:53;17.10;99.90
32640;DHT22;19049;52.524;11.468;2023-08-01T21:38:21;17.10;99.90
32640;DHT22;19049;52.524;11.468;2023-08-01T21:40:46;17.10;99.90
32640;DHT22;19049;52.524;11.468;2023-08-01T21:43:12;17.10;99.90
32640;DHT22;19049;52.524;11.468;2023-08-01T21:45:38;17.10;99.90
32640;DHT22;19049;52.524;11.468;2023-08-01T21:48:03;17.10;99.90
32640;DHT22;19049;52.524;11.468;2023-08-01T21:50:29;17.10;99.90
32640;DHT22;19049;52.524;11.468;2023-08-01T21:52:55;17.10;99.90
32640;DHT22;19049;52.524;11.468;2023-08-01T21:55:21;17.10;99.90
32640;DHT22;19049;52.524;11.468;2023-08-01T21:57:47;17.10;99.90
32640;DHT22;19049;52.524;11.468;2023-08-01T22:00:16;17.10;99.90
32640;DHT22;19049;52.524;11.468;2023-08-01T22:02:41;17.10;99.90
32640;DHT22;19049;52.524;11.468;2023-08-01T22:05:08;17.20;99.90
32640;DHT22;19049;52.524;11.468;2023-08-01T22:07:34;17.20;99.90
32640;DHT22;19049;52.524;11.468;2023-08-01T22:10:00;17.60;99.90
32640;DHT22;19049;52.524;11.468;2023-08-01T22:12:27;17.70;99.90
32640;DHT22;19049;52.524;11.468;2023-08-01T22:14:53;17.30;99.90
32640;DHT22;19049;52.524;11.468;2023-08-01T22:17:19;16.10;99.90
32640;DHT22;19049;52.524;11.468;2023-08-01T22:19:45;17.30;99.90
32640;DHT22;19049;52.524;11.468;2023-08-01T22:22:11;17.30;99.90
32640;DHT22;19049;52.524;11.468;2023-08-01T22:24:37;16.30;99.90
32640;DHT22;19049;52.524;11.468;2023-08-01T22:27:03;17.20;99.90
32640;DHT22;19049;52.524;11.468;2023-08-01T22:29:28;17.00;99.90
32640;DHT22;19049;52.524;11.468;2023-08-01T22:31:55;17.10;99.90